Century Venus — 3FXD2 — position and weather

sailwx.info

Track history (hours):
 
Tides and Currents Weather Stations Pressure Air Temp Water Temp Dewpoint Dewpoint Depression Visibility Wind Speed Wind Dir Waves Ship Positions

Century Venus

Last reported at 2015-May-13 09:25 UTC. Time now 2015-May-28 16:11 UTC.
Position N 29°48' W 090°00'.
Warning: this ship's position is 15 days out of date.

Length 137 m; draft 4.7 m.

Type: Cargo ship. MMSI: 357069000.

Date/timePositionNaut miles runAvg speedWind from/ knotsBaromVisibWave heightAir tempDewpointWater temp
2015-May-13 09:25N 29°48' W 090°00'8 9.1
2015-May-13 08:33N 29°55' W 089°56'1110.5
2015-May-13 07:31N 29°55' W 090°08'2 0.2
2015-May-12 22:29N 29°56' W 090°09'0 0.0
2015-May-12 12:32N 29°56' W 090°09'0 0.0
2015-May-12 00:20N 29°56' W 090°09'0 0.0
2015-May-11 23:26N 29°56' W 090°09'0 0.0
2015-May-11 22:23N 29°56' W 090°09'0 0.0
2015-May-11 18:14N 29°56' W 090°09'0 0.0
2015-May-11 12:20N 29°56' W 090°09'0 0.0
2015-May-11 11:29N 29°56' W 090°09'0 0.0
2015-May-11 02:28N 29°56' W 090°08'5 5.7
2015-May-11 01:31N 29°57' W 090°02'3 0.2
2015-May-10 10:31N 29°56' W 089°60'0 0.0
2015-May-10 03:28N 29°56' W 089°60'0 0.0
2015-May-09 22:07N 29°56' W 089°60'0 0.0
2015-May-09 20:31N 29°56' W 089°60'0 0.0
2015-May-09 19:04N 29°56' W 089°60'0 0.0
2015-May-09 14:25N 29°56' W 089°60'0 0.0
2015-May-09 13:16N 29°56' W 089°60'0 0.0
2015-May-09 12:28N 29°56' W 089°60'0 0.0
2015-May-09 10:07N 29°56' W 089°60'0 0.0
2015-May-09 08:22N 29°56' W 089°60'0 0.0
2015-May-08 13:33N 29°56' W 089°60'8 7.3
2015-May-08 12:30N 29°57' W 090°08'1211.1
2015-May-08 11:26N 29°56' W 090°22'  
2015-May-04 07:33N 29°55' W 090°08'6 6.4
2015-May-04 06:33N 29°57' W 090°01'7 7.1
2015-May-04 05:31N 29°53' W 089°54'6 6.2
2015-May-04 04:29N 29°49' W 090°00'  
Track history (hours):
 
Tides and Currents Weather Stations Pressure Air Temp Water Temp Dewpoint Dewpoint Depression Visibility Wind Speed Wind Dir Waves Ship Positions

Century Venus

Last reported at 2015-May-13 09:25 UTC. Time now 2015-May-28 16:11 UTC.
Position N 29°48' W 090°00'.
Warning: this ship's position is 15 days out of date.

Length 137 m; draft 4.7 m.

Type: Cargo ship. MMSI: 357069000.

Date/timePositionNaut miles runAvg speedWind from/ knotsBaromVisibWave heightAir tempDewpointWater temp
2015-May-13 09:25N 29°48' W 090°00'8 9.1
2015-May-13 08:33N 29°55' W 089°56'1110.5
2015-May-13 07:31N 29°55' W 090°08'2 0.2
2015-May-12 22:29N 29°56' W 090°09'0 0.0
2015-May-12 12:32N 29°56' W 090°09'0 0.0
2015-May-12 00:20N 29°56' W 090°09'0 0.0
2015-May-11 23:26N 29°56' W 090°09'0 0.0
2015-May-11 22:23N 29°56' W 090°09'0 0.0
2015-May-11 18:14N 29°56' W 090°09'0 0.0
2015-May-11 12:20N 29°56' W 090°09'0 0.0
2015-May-11 11:29N 29°56' W 090°09'0 0.0
2015-May-11 02:28N 29°56' W 090°08'5 5.7
2015-May-11 01:31N 29°57' W 090°02'3 0.2
2015-May-10 10:31N 29°56' W 089°60'0 0.0
2015-May-10 03:28N 29°56' W 089°60'0 0.0
2015-May-09 22:07N 29°56' W 089°60'0 0.0
2015-May-09 20:31N 29°56' W 089°60'0 0.0
2015-May-09 19:04N 29°56' W 089°60'0 0.0
2015-May-09 14:25N 29°56' W 089°60'0 0.0
2015-May-09 13:16N 29°56' W 089°60'0 0.0
2015-May-09 12:28N 29°56' W 089°60'0 0.0
2015-May-09 10:07N 29°56' W 089°60'0 0.0
2015-May-09 08:22N 29°56' W 089°60'0 0.0
2015-May-08 13:33N 29°56' W 089°60'8 7.3
2015-May-08 12:30N 29°57' W 090°08'1211.1
2015-May-08 11:26N 29°56' W 090°22'  
2015-May-04 07:33N 29°55' W 090°08'6 6.4
2015-May-04 06:33N 29°57' W 090°01'7 7.1
2015-May-04 05:31N 29°53' W 089°54'6 6.2
2015-May-04 04:29N 29°49' W 090°00'  

Dump ship's entire track history